Time;durP1;ratioP1;P1;durP2;ratioP2;P2;SDS_P1;SDS_P2;PMS_P1;PMS_P2;Temp;Humidity;BMP_temperature;BMP_pressure;BME280_temperature;BME280_humidity;BME280_pressure;Samples;Min_cycle;Max_cycle;Signal;HPM_P1;HPM_P2
2021/05/13 00:02:10;;;;;;;9.40;3.43;;;11.50;99.90;;;;;;5055990;28;20213;-64
2021/05/13 00:04:36;;;;;;;6.20;3.87;;;11.50;99.90;;;;;;5055194;28;20697;-62
2021/05/13 00:07:02;;;;;;;5.60;3.60;;;11.50;99.90;;;;;;5055663;28;20217;-62
2021/05/13 00:09:30;;;;;;;8.00;4.13;;;11.40;99.90;;;;;;5055855;28;20278;-64
2021/05/13 00:12:00;;;;;;;6.03;3.70;;;11.40;99.90;;;;;;5055869;28;20236;-63
2021/05/13 00:14:26;;;;;;;6.13;3.13;;;11.40;99.90;;;;;;5055304;28;20292;-63
2021/05/13 00:16:52;;;;;;;6.67;3.60;;;11.40;99.90;;;;;;5055512;28;20213;-63
2021/05/13 00:19:19;;;;;;;7.27;3.70;;;11.40;99.90;;;;;;5055513;28;20202;-63
2021/05/13 00:21:45;;;;;;;7.20;4.07;;;11.40;99.90;;;;;;5055649;28;20283;-62
2021/05/13 00:24:14;;;;;;;6.50;4.03;;;11.40;99.90;;;;;;5054875;28;20602;-64
2021/05/13 00:26:44;;;;;;;7.73;4.20;;;11.30;99.90;;;;;;5054763;28;20202;-62
2021/05/13 00:29:12;;;;;;;5.60;4.00;;;11.20;99.90;;;;;;5054454;28;20588;-63
2021/05/13 00:31:40;;;;;;;5.43;4.03;;;11.10;99.90;;;;;;5054052;28;20238;-62
2021/05/13 00:34:06;;;;;;;6.83;4.00;;;11.10;99.90;;;;;;5054202;28;20210;-63
2021/05/13 00:36:34;;;;;;;7.43;3.97;;;11.00;99.90;;;;;;5053229;28;20682;-61
2021/05/13 00:39:00;;;;;;;5.17;3.67;;;10.90;99.90;;;;;;5053463;28;20230;-63
2021/05/13 00:41:27;;;;;;;6.83;3.90;;;10.90;99.90;;;;;;5054557;28;20221;-64
2021/05/13 00:43:56;;;;;;;5.37;3.80;;;10.80;99.90;;;;;;5053367;28;20229;-63
2021/05/13 00:46:23;;;;;;;6.47;3.60;;;10.80;99.90;;;;;;5053241;28;20212;-64
2021/05/13 00:48:51;;;;;;;5.97;3.90;;;10.80;99.90;;;;;;5052990;28;20205;-64
2021/05/13 00:51:18;;;;;;;6.43;4.10;;;10.90;99.90;;;;;;5053411;28;20233;-64
2021/05/13 00:53:46;;;;;;;7.67;4.07;;;10.90;99.90;;;;;;5053209;28;20236;-64
2021/05/13 00:56:12;;;;;;;4.73;3.60;;;10.90;99.90;;;;;;5052955;28;20209;-64
2021/05/13 00:58:41;;;;;;;6.37;3.33;;;10.90;99.90;;;;;;5054210;28;20206;-62
2021/05/13 01:01:11;;;;;;;4.90;4.47;;;11.00;99.90;;;;;;5053373;28;20321;-63
2021/05/13 01:03:37;;;;;;;8.53;3.77;;;11.00;99.90;;;;;;5053142;28;20632;-62
2021/05/13 01:06:04;;;;;;;7.03;3.80;;;11.00;99.90;;;;;;5053463;28;20225;-63
2021/05/13 01:08:31;;;;;;;5.10;3.70;;;11.10;99.90;;;;;;5053245;28;20669;-63
2021/05/13 01:10:57;;;;;;;4.80;3.40;;;11.10;99.90;;;;;;5053517;28;20230;-61
2021/05/13 01:13:25;;;;;;;4.97;4.33;;;11.20;99.90;;;;;;5052456;28;20259;-62
2021/05/13 01:15:54;;;;;;;6.40;4.00;;;11.20;99.90;;;;;;5052950;28;20209;-63
2021/05/13 01:18:23;;;;;;;5.30;4.10;;;11.20;99.90;;;;;;5052702;28;20206;-63
2021/05/13 01:20:50;;;;;;;5.93;4.50;;;11.30;99.90;;;;;;5052626;28;20226;-62
2021/05/13 01:23:18;;;;;;;6.30;4.50;;;11.20;99.90;;;;;;5052353;28;20209;-63
2021/05/13 01:25:49;;;;;;;5.73;4.90;;;11.30;99.90;;;;;;5052198;28;20251;-62
2021/05/13 01:28:15;;;;;;;8.00;4.43;;;11.30;99.90;;;;;;5051395;28;20661;-63
2021/05/13 01:30:43;;;;;;;7.20;4.70;;;11.30;99.90;;;;;;5052022;28;20237;-62
2021/05/13 01:33:12;;;;;;;7.37;4.87;;;11.40;99.90;;;;;;5052097;28;20758;-63
2021/05/13 01:35:38;;;;;;;7.30;4.90;;;11.50;99.90;;;;;;5051948;28;20553;-62
2021/05/13 01:38:07;;;;;;;6.90;4.90;;;11.60;99.90;;;;;;5052676;28;20206;-63
2021/05/13 01:40:35;;;;;;;6.13;4.20;;;11.70;99.90;;;;;;5051820;28;20774;-63
2021/05/13 01:43:02;;;;;;;5.43;4.57;;;11.80;99.90;;;;;;5052159;28;20202;-63
2021/05/13 01:45:28;;;;;;;6.63;4.80;;;11.80;99.90;;;;;;5052068;28;20230;-63
2021/05/13 01:48:01;;;;;;;9.87;5.17;;;11.90;99.90;;;;;;5052008;28;20216;-63
2021/05/13 01:50:29;;;;;;;6.77;5.10;;;12.00;99.90;;;;;;5052411;28;20233;-63
2021/05/13 01:52:56;;;;;;;7.47;5.00;;;12.10;99.90;;;;;;5053070;28;20217;-63
2021/05/13 01:55:23;;;;;;;5.53;5.03;;;12.10;99.90;;;;;;5052462;28;20201;-64
2021/05/13 01:57:50;;;;;;;5.60;4.87;;;12.00;99.90;;;;;;5051780;28;20224;-63
2021/05/13 02:00:17;;;;;;;9.83;4.80;;;11.90;99.90;;;;;;5052418;28;20225;-61
2021/05/13 02:02:44;;;;;;;6.17;4.90;;;11.90;99.90;;;;;;5052178;28;20213;-62
2021/05/13 02:05:11;;;;;;;6.07;4.40;;;11.90;99.90;;;;;;5051509;28;20232;-63
2021/05/13 02:07:38;;;;;;;5.10;4.60;;;11.70;99.90;;;;;;5051874;28;20205;-62
2021/05/13 02:10:06;;;;;;;6.93;4.80;;;11.60;99.90;;;;;;5051752;28;20596;-62
2021/05/13 02:12:32;;;;;;;8.40;4.93;;;11.60;99.90;;;;;;5051735;28;20263;-63
2021/05/13 02:14:59;;;;;;;4.70;4.30;;;11.50;99.90;;;;;;5051671;28;20205;-63
2021/05/13 02:17:26;;;;;;;6.67;4.43;;;11.40;99.90;;;;;;5051681;28;20217;-63
2021/05/13 02:19:52;;;;;;;9.13;4.83;;;11.40;99.90;;;;;;5051495;28;20707;-63
2021/05/13 02:22:18;;;;;;;8.33;5.03;;;11.50;99.90;;;;;;5051565;28;20209;-62
2021/05/13 02:24:44;;;;;;;6.87;4.80;;;11.50;99.90;;;;;;5051489;28;20252;-62
2021/05/13 02:27:10;;;;;;;8.23;5.17;;;11.60;99.90;;;;;;5051576;28;20677;-63
2021/05/13 02:29:36;;;;;;;6.90;4.53;;;11.70;99.90;;;;;;5051853;28;20216;-62
2021/05/13 02:32:04;;;;;;;6.30;4.60;;;11.70;99.90;;;;;;5051555;28;20237;-62
2021/05/13 02:34:30;;;;;;;8.93;4.90;;;11.70;99.90;;;;;;5051800;28;20204;-64
2021/05/13 02:36:56;;;;;;;6.27;4.60;;;11.70;99.90;;;;;;5051360;28;20206;-62
2021/05/13 02:39:22;;;;;;;5.57;4.47;;;11.70;99.90;;;;;;5053566;28;20218;-62
2021/05/13 02:41:49;;;;;;;5.87;4.50;;;11.70;99.90;;;;;;5055746;28;20631;-61
2021/05/13 02:44:15;;;;;;;7.23;4.97;;;11.70;99.90;;;;;;5055702;28;20232;-60
2021/05/13 02:46:41;;;;;;;8.23;5.17;;;11.60;99.90;;;;;;5055440;28;20742;-62
2021/05/13 02:49:08;;;;;;;6.13;4.93;;;11.60;99.90;;;;;;5055189;28;20210;-62
2021/05/13 02:51:34;;;;;;;6.37;4.53;;;11.60;99.90;;;;;;5055594;28;20275;-63
2021/05/13 02:54:00;;;;;;;5.67;4.23;;;11.60;99.90;;;;;;5055497;28;20681;-63
2021/05/13 02:56:26;;;;;;;6.53;4.90;;;11.70;99.90;;;;;;5055911;28;20206;-63
2021/05/13 02:58:53;;;;;;;6.47;4.73;;;11.60;99.90;;;;;;5054876;28;20670;-63
2021/05/13 03:01:24;;;;;;;5.90;4.57;;;11.50;99.90;;;;;;5055279;28;20256;-63
2021/05/13 03:03:51;;;;;;;9.20;5.10;;;11.40;99.90;;;;;;5055324;28;20221;-63
2021/05/13 03:06:18;;;;;;;9.23;4.93;;;11.40;99.90;;;;;;5055729;28;20210;-63
2021/05/13 03:08:44;;;;;;;7.07;4.97;;;11.40;99.90;;;;;;5055581;28;20297;-63
2021/05/13 03:11:11;;;;;;;8.17;5.00;;;11.40;99.90;;;;;;5055616;28;20229;-63
2021/05/13 03:13:38;;;;;;;7.07;4.70;;;11.40;99.90;;;;;;5055349;28;20594;-61
2021/05/13 03:16:04;;;;;;;5.33;4.80;;;11.40;99.90;;;;;;5054670;28;20213;-63
2021/05/13 03:18:33;;;;;;;5.23;4.73;;;11.30;99.90;;;;;;5054419;28;20224;-63
2021/05/13 03:21:05;;;;;;;7.03;5.23;;;11.40;99.90;;;;;;5054710;28;20230;-65
2021/05/13 03:23:43;;;;;;;6.20;4.63;;;11.40;99.90;;;;;;5055594;28;20229;-63
2021/05/13 03:26:09;;;;;;;8.17;5.30;;;11.30;99.90;;;;;;5054921;28;20237;-62
2021/05/13 03:28:36;;;;;;;7.67;5.10;;;11.30;99.90;;;;;;5055226;28;20283;-62
2021/05/13 03:31:02;;;;;;;7.77;4.90;;;11.30;99.90;;;;;;5056110;28;20233;-60
2021/05/13 03:33:28;;;;;;;7.40;5.27;;;11.30;99.90;;;;;;5054357;28;20217;-60
2021/05/13 03:35:54;;;;;;;6.93;4.93;;;11.40;99.90;;;;;;5054685;28;20228;-60
2021/05/13 03:38:21;;;;;;;6.73;5.00;;;11.40;99.90;;;;;;5054490;28;20263;-61
2021/05/13 03:40:49;;;;;;;5.43;4.83;;;11.40;99.90;;;;;;5054294;28;20221;-60
2021/05/13 03:43:15;;;;;;;10.40;5.00;;;11.30;99.90;;;;;;5054437;28;20210;-60
2021/05/13 03:45:41;;;;;;;7.77;5.10;;;11.30;99.90;;;;;;5054119;28;20271;-62
2021/05/13 03:48:09;;;;;;;8.70;5.33;;;11.40;99.90;;;;;;5054793;28;20218;-60
2021/05/13 03:50:38;;;;;;;9.40;5.40;;;11.40;99.90;;;;;;5053726;28;20221;-62
2021/05/13 03:53:05;;;;;;;7.17;5.67;;;11.50;99.90;;;;;;5054100;28;20212;-62
2021/05/13 03:55:32;;;;;;;8.53;5.17;;;11.40;99.90;;;;;;5054495;28;20634;-61
2021/05/13 03:58:00;;;;;;;7.87;5.67;;;11.40;99.90;;;;;;5053478;28;20670;-61
2021/05/13 04:00:31;;;;;;;8.37;5.17;;;11.30;99.90;;;;;;5053721;28;20221;-60
2021/05/13 04:02:57;;;;;;;6.90;4.83;;;11.20;99.90;;;;;;5053695;28;20219;-61
2021/05/13 04:05:25;;;;;;;8.00;4.83;;;11.20;99.90;;;;;;5053193;28;20299;-60
2021/05/13 04:07:51;;;;;;;7.53;5.30;;;11.30;99.90;;;;;;5053500;28;20259;-61
2021/05/13 04:10:17;;;;;;;6.67;5.33;;;11.30;99.90;;;;;;5053737;28;20230;-61
2021/05/13 04:12:44;;;;;;;8.40;5.27;;;11.30;99.90;;;;;;5053134;28;20201;-60
2021/05/13 04:15:12;;;;;;;5.77;4.70;;;11.30;99.90;;;;;;5053242;28;20259;-60
2021/05/13 04:17:40;;;;;;;7.43;5.07;;;11.40;99.90;;;;;;5053468;28;20213;-63
2021/05/13 04:20:07;;;;;;;5.97;5.17;;;11.40;99.90;;;;;;5053312;28;20236;-60
2021/05/13 04:22:35;;;;;;;6.07;4.80;;;11.40;99.90;;;;;;5052986;28;20236;-61
2021/05/13 04:25:01;;;;;;;7.27;5.10;;;11.40;99.90;;;;;;5052650;28;20645;-61
2021/05/13 04:27:27;;;;;;;6.37;4.53;;;11.40;99.90;;;;;;5052791;28;20210;-61
2021/05/13 04:29:54;;;;;;;6.77;4.80;;;11.30;99.90;;;;;;5053088;28;20209;-61
2021/05/13 04:32:21;;;;;;;8.53;5.33;;;11.20;99.90;;;;;;5053108;28;20209;-61
2021/05/13 04:34:47;;;;;;;6.60;4.70;;;11.20;99.90;;;;;;5052649;28;20206;-61
2021/05/13 04:37:13;;;;;;;8.13;5.30;;;11.20;99.90;;;;;;5053111;28;20206;-61
2021/05/13 04:39:39;;;;;;;7.03;5.00;;;11.30;99.90;;;;;;5052270;28;20213;-63
2021/05/13 04:42:06;;;;;;;6.63;5.20;;;11.40;99.90;;;;;;5052555;28;20206;-62
2021/05/13 04:44:34;;;;;;;7.53;4.87;;;11.50;99.90;;;;;;5053501;28;20234;-61
2021/05/13 04:47:10;;;;;;;6.87;5.40;;;11.50;99.90;;;;;;5054296;28;20209;-61
2021/05/13 04:49:37;;;;;;;6.73;4.87;;;11.60;99.90;;;;;;5053973;28;20213;-60
2021/05/13 04:52:04;;;;;;;7.10;5.50;;;11.70;99.90;;;;;;5052866;28;20713;-61
2021/05/13 04:54:30;;;;;;;8.13;5.13;;;11.80;99.90;;;;;;5052866;28;20210;-61
2021/05/13 04:57:00;;;;;;;7.20;4.83;;;12.00;99.90;;;;;;5053274;28;20210;-62
2021/05/13 04:59:26;;;;;;;7.33;5.23;;;12.20;99.90;;;;;;5052640;28;20205;-60
2021/05/13 05:01:52;;;;;;;6.10;5.50;;;12.40;99.90;;;;;;5052452;28;20236;-60
2021/05/13 05:04:18;;;;;;;9.77;5.80;;;12.50;99.90;;;;;;5052458;28;20728;-61
2021/05/13 05:06:46;;;;;;;9.67;5.27;;;12.70;99.90;;;;;;5051754;28;20210;-60
2021/05/13 05:09:12;;;;;;;8.33;5.20;;;12.90;99.90;;;;;;5052192;28;20206;-60
2021/05/13 05:11:38;;;;;;;7.83;4.90;;;12.90;99.90;;;;;;5052734;28;20235;-60
2021/05/13 05:14:05;;;;;;;9.07;5.17;;;12.90;99.90;;;;;;5052421;28;20220;-61
2021/05/13 05:16:31;;;;;;;6.00;4.83;;;13.00;99.90;;;;;;5052522;28;20205;-64
2021/05/13 05:18:57;;;;;;;9.17;4.73;;;12.90;99.90;;;;;;5052210;28;20201;-61
2021/05/13 05:21:24;;;;;;;6.80;4.90;;;12.80;99.90;;;;;;5051350;28;20720;-62
2021/05/13 05:23:51;;;;;;;9.57;5.17;;;12.70;99.90;;;;;;5051533;28;20207;-63
2021/05/13 05:26:17;;;;;;;6.20;4.80;;;12.70;99.90;;;;;;5052393;28;20228;-61
2021/05/13 05:28:44;;;;;;;7.10;5.57;;;12.70;99.90;;;;;;5051446;28;20263;-61
2021/05/13 05:31:10;;;;;;;6.60;4.10;;;13.10;99.90;;;;;;5051425;28;20233;-62
2021/05/13 05:33:36;;;;;;;6.60;3.80;;;14.40;99.90;;;;;;5051176;28;20217;-61
2021/05/13 05:36:03;;;;;;;5.80;4.00;;;14.90;99.90;;;;;;5051728;28;20212;-61
2021/05/13 05:38:29;;;;;;;5.17;4.23;;;15.00;99.90;;;;;;5051521;28;20209;-61
2021/05/13 05:40:56;;;;;;;5.23;3.57;;;16.20;99.90;;;;;;5051746;28;20598;-61
2021/05/13 05:43:22;;;;;;;9.63;3.87;;;18.30;99.90;;;;;;5051971;28;20653;-66
2021/05/13 05:45:49;;;;;;;3.63;3.20;;;20.10;99.90;;;;;;5051720;28;20225;-61
2021/05/13 05:48:15;;;;;;;4.32;3.30;;;21.30;98.60;;;;;;5051501;28;20209;-62
2021/05/13 05:50:43;;;;;;;6.20;3.95;;;22.80;94.30;;;;;;5051479;28;20233;-61
2021/05/13 05:53:10;;;;;;;8.43;4.80;;;23.00;92.60;;;;;;5051290;28;20205;-61
2021/05/13 05:55:36;;;;;;;8.70;3.35;;;22.80;92.00;;;;;;5050920;28;20661;-62
2021/05/13 05:58:04;;;;;;;9.18;5.93;;;22.80;91.30;;;;;;5051355;28;20673;-62
2021/05/13 06:00:30;;;;;;;6.82;3.85;;;23.60;89.30;;;;;;5051338;28;20295;-62
2021/05/13 06:02:57;;;;;;;5.47;2.88;;;24.80;85.80;;;;;;5051112;28;20560;-62
2021/05/13 06:05:24;;;;;;;4.47;2.70;;;26.20;80.50;;;;;;5051093;28;20375;-61
2021/05/13 06:07:50;;;;;;;3.67;2.63;;;27.60;73.60;;;;;;5050861;28;20727;-62
2021/05/13 06:10:17;;;;;;;3.28;2.45;;;28.60;67.60;;;;;;5051282;28;20225;-62
2021/05/13 06:12:44;;;;;;;5.47;2.70;;;29.50;64.60;;;;;;5052228;28;20202;-63
2021/05/13 06:15:14;;;;;;;4.35;2.85;;;30.50;61.60;;;;;;5055081;28;20201;-63
2021/05/13 06:17:40;;;;;;;4.05;2.63;;;31.30;57.70;;;;;;5055196;28;20206;-62
2021/05/13 06:20:09;;;;;;;4.82;2.72;;;32.10;55.40;;;;;;5055112;28;20740;-63
2021/05/13 06:22:37;;;;;;;6.25;2.70;;;32.90;52.80;;;;;;5055644;28;20210;-62
2021/05/13 06:25:05;;;;;;;2.92;2.38;;;33.60;50.80;;;;;;5055025;28;20713;-63
2021/05/13 06:27:31;;;;;;;4.53;2.38;;;34.10;49.90;;;;;;5056524;28;20587;-65
2021/05/13 06:29:57;;;;;;;6.03;3.20;;;34.50;47.40;;;;;;5056264;28;20209;-64
2021/05/13 06:32:25;;;;;;;10.05;6.40;;;34.30;46.50;;;;;;5058218;28;20217;-63
2021/05/13 06:34:52;;;;;;;5.70;2.40;;;34.20;47.50;;;;;;5056625;28;20205;-63
2021/05/13 06:37:18;;;;;;;9.15;5.88;;;34.60;46.00;;;;;;5056900;28;20247;-63
2021/05/13 06:39:44;;;;;;;4.22;2.67;;;35.30;45.00;;;;;;5056119;28;20209;-63
2021/05/13 06:42:10;;;;;;;7.05;5.47;;;35.60;43.90;;;;;;5056283;28;20206;-63
2021/05/13 06:44:36;;;;;;;5.10;2.50;;;35.80;42.80;;;;;;5054948;28;20218;-65
2021/05/13 06:47:03;;;;;;;5.43;3.00;;;36.10;42.90;;;;;;5055152;28;20205;-65
2021/05/13 06:49:30;;;;;;;4.82;2.47;;;36.50;41.80;;;;;;5055069;28;20275;-64
2021/05/13 06:51:56;;;;;;;4.22;2.25;;;36.80;40.80;;;;;;5054633;28;20606;-63
2021/05/13 06:54:22;;;;;;;6.57;2.35;;;37.40;40.30;;;;;;5054977;28;20210;-62
2021/05/13 06:56:49;;;;;;;4.10;2.17;;;37.60;39.40;;;;;;5054697;28;20205;-64
2021/05/13 06:59:15;;;;;;;3.67;2.08;;;37.20;39.50;;;;;;5055065;28;20206;-64
2021/05/13 07:01:41;;;;;;;3.42;1.90;;;36.20;39.30;;;;;;5055024;28;20225;-66
2021/05/13 07:04:07;;;;;;;4.85;2.10;;;34.80;41.10;;;;;;5054757;28;20275;-65
2021/05/13 07:06:36;;;;;;;3.33;1.85;;;34.40;42.00;;;;;;5054528;28;20213;-65
2021/05/13 07:09:03;;;;;;;5.43;2.20;;;35.00;41.20;;;;;;5054051;28;20601;-64
2021/05/13 07:11:29;;;;;;;3.97;1.80;;;35.90;40.00;;;;;;5054367;28;20222;-64
2021/05/13 07:13:55;;;;;;;6.68;2.20;;;36.60;39.00;;;;;;5054505;28;20201;-63
2021/05/13 07:16:21;;;;;;;4.07;2.10;;;36.70;38.40;;;;;;5054864;28;20236;-62
2021/05/13 07:18:47;;;;;;;4.25;2.13;;;35.40;39.50;;;;;;5054194;28;20209;-65
2021/05/13 07:21:14;;;;;;;4.22;2.30;;;35.20;40.10;;;;;;5053891;28;20240;-64
2021/05/13 07:23:43;;;;;;;3.92;1.73;;;34.80;40.10;;;;;;5053562;28;20208;-64
2021/05/13 07:26:09;;;;;;;2.80;1.85;;;35.00;40.20;;;;;;5053676;28;20248;-64
2021/05/13 07:28:35;;;;;;;2.72;1.90;;;35.80;39.00;;;;;;5053623;28;20669;-64
2021/05/13 07:31:01;;;;;;;2.78;1.85;;;36.40;38.40;;;;;;5053607;28;20324;-64
2021/05/13 07:33:28;;;;;;;5.78;2.00;;;36.90;37.10;;;;;;5054008;28;20205;-64
2021/05/13 07:35:54;;;;;;;4.68;1.98;;;36.60;36.90;;;;;;5053885;28;20233;-64
2021/05/13 07:38:21;;;;;;;3.47;1.80;;;35.90;37.40;;;;;;5054119;28;20615;-63
2021/05/13 07:40:48;;;;;;;2.90;1.52;;;36.20;37.50;;;;;;5053769;28;20232;-64
2021/05/13 07:43:14;;;;;;;3.15;2.00;;;36.80;35.40;;;;;;5052987;28;20213;-67
2021/05/13 07:45:43;;;;;;;3.30;1.77;;;37.20;35.00;;;;;;5052877;28;20229;-66
2021/05/13 07:48:10;;;;;;;2.60;1.60;;;37.70;33.80;;;;;;5052924;28;20259;-65
2021/05/13 07:50:36;;;;;;;1.85;1.10;;;38.20;32.90;;;;;;5053016;28;20234;-66
2021/05/13 07:53:04;;;;;;;3.80;2.05;;;38.50;31.30;;;;;;5052993;28;20214;-65
2021/05/13 07:55:30;;;;;;;3.65;1.63;;;38.60;31.50;;;;;;5052652;28;20228;-65
2021/05/13 07:57:57;;;;;;;5.30;1.65;;;38.60;31.10;;;;;;5052659;28;20201;-67
2021/05/13 08:00:24;;;;;;;4.20;1.00;;;38.80;31.00;;;;;;5052818;28;20233;-64
2021/05/13 08:02:50;;;;;;;3.05;1.13;;;38.90;30.00;;;;;;5052976;28;20209;-65
2021/05/13 08:05:17;;;;;;;3.25;1.25;;;39.10;29.80;;;;;;5052714;28;20229;-67
2021/05/13 08:07:43;;;;;;;3.15;1.50;;;39.50;29.70;;;;;;5052868;28;20206;-66
2021/05/13 08:10:10;;;;;;;3.20;1.38;;;39.50;29.70;;;;;;5052350;28;20232;-66
2021/05/13 08:12:37;;;;;;;3.25;1.50;;;39.30;30.20;;;;;;5052571;28;20710;-65
2021/05/13 08:15:08;;;;;;;2.67;1.40;;;39.20;30.60;;;;;;5052341;28;20210;-67
2021/05/13 08:17:34;;;;;;;3.67;1.50;;;39.30;30.70;;;;;;5052894;28;20205;-65
2021/05/13 08:20:01;;;;;;;2.72;1.30;;;39.40;30.10;;;;;;5052246;28;20351;-65
2021/05/13 08:22:27;;;;;;;4.63;1.77;;;39.40;29.90;;;;;;5052436;28;20259;-66
2021/05/13 08:24:53;;;;;;;4.60;1.50;;;39.40;30.80;;;;;;5052611;28;20233;-66
2021/05/13 08:27:19;;;;;;;4.35;1.50;;;39.10;30.20;;;;;;5052370;28;20216;-66
2021/05/13 08:29:45;;;;;;;3.38;1.40;;;38.60;30.70;;;;;;5052003;28;20205;-65
2021/05/13 08:32:12;;;;;;;5.38;1.45;;;38.00;31.40;;;;;;5052714;28;20216;-64
2021/05/13 08:34:39;;;;;;;4.03;1.63;;;37.30;32.00;;;;;;5052160;28;20201;-64
2021/05/13 08:37:05;;;;;;;2.85;1.25;;;36.20;33.50;;;;;;5052241;28;20205;-64
2021/05/13 08:39:31;;;;;;;3.83;1.50;;;34.50;34.50;;;;;;5051966;28;20217;-64
2021/05/13 08:42:00;;;;;;;1.98;1.13;;;32.60;36.00;;;;;;5052108;28;20221;-65
2021/05/13 08:44:28;;;;;;;3.70;1.17;;;30.70;37.80;;;;;;5051821;28;20221;-66
2021/05/13 08:46:56;;;;;;;3.22;1.23;;;29.30;39.40;;;;;;5051672;28;20205;-66
2021/05/13 08:49:25;;;;;;;4.57;1.80;;;28.00;40.40;;;;;;5054193;28;20262;-62
2021/05/13 08:51:52;;;;;;;1.98;1.40;;;27.00;42.90;;;;;;5071421;28;20227;-63
2021/05/13 08:54:18;;;;;;;3.38;1.73;;;26.10;44.70;;;;;;5071255;28;20672;-63
2021/05/13 08:56:44;;;;;;;4.40;1.17;;;25.20;45.20;;;;;;5070952;28;20297;-64
2021/05/13 08:59:13;;;;;;;3.25;1.23;;;24.50;45.60;;;;;;5071484;28;20207;-63
2021/05/13 09:01:54;;;;;;;3.03;1.15;;;23.70;46.90;;;;;;5071268;28;20685;-62
2021/05/13 09:04:21;;;;;;;3.38;1.50;;;22.90;47.80;;;;;;5071489;28;20224;-63
2021/05/13 09:06:48;;;;;;;2.20;1.05;;;22.30;49.40;;;;;;5071448;28;20212;-62
2021/05/13 09:09:16;;;;;;;4.03;1.40;;;21.70;50.70;;;;;;5071239;28;20213;-62
2021/05/13 09:11:50;;;;;;;5.07;2.42;;;21.30;52.00;;;;;;5071129;28;20228;-62
2021/05/13 09:14:23;;;;;;;3.72;1.35;;;21.20;52.00;;;;;;5071113;28;20228;-63
2021/05/13 09:16:50;;;;;;;6.38;1.33;;;21.20;52.00;;;;;;5070895;28;20236;-62
2021/05/13 09:19:24;;;;;;;3.17;1.40;;;21.00;52.00;;;;;;5071306;28;20212;-62
2021/05/13 09:21:53;;;;;;;5.65;1.70;;;21.00;52.40;;;;;;5071712;28;20228;-63
2021/05/13 09:24:47;;;;;;;5.53;2.75;;;20.90;53.10;;;;;;5071344;28;20217;-61
2021/05/13 09:27:15;;;;;;;3.05;1.20;;;20.80;56.20;;;;;;5071181;28;20209;-62
2021/05/13 09:29:41;;;;;;;3.78;1.38;;;20.70;55.00;;;;;;5071205;28;20362;-62
2021/05/13 09:32:18;;;;;;;2.50;1.30;;;20.60;55.80;;;;;;5068334;22;20240;-73
2021/05/13 09:34:45;;;;;;;2.92;1.50;;;20.70;55.00;;;;;;5051181;28;20201;-68
2021/05/13 09:37:12;;;;;;;2.95;1.30;;;20.70;55.50;;;;;;5051213;28;20214;-68
2021/05/13 09:39:45;;;;;;;3.47;1.40;;;20.50;55.80;;;;;;5051148;28;20208;-66
2021/05/13 09:42:11;;;;;;;2.38;1.20;;;20.40;56.20;;;;;;5051141;28;20600;-66
2021/05/13 09:44:39;;;;;;;3.58;1.60;;;20.30;54.90;;;;;;5050021;28;20232;-67
2021/05/13 09:47:16;;;;;;;3.95;2.53;;;20.30;55.80;;;;;;5050660;28;20613;-68
2021/05/13 09:50:02;;;;;;;2.85;1.40;;;20.50;55.80;;;;;;5051648;28;20209;-68
2021/05/13 09:52:57;;;;;;;4.78;1.40;;;20.70;56.00;;;;;;5050436;28;20213;-68
2021/05/13 09:55:26;;;;;;;3.35;1.10;;;20.90;54.50;;;;;;5050741;28;20557;-68
2021/05/13 09:57:59;;;;;;;1.75;1.00;;;21.10;53.20;;;;;;5050699;28;20264;-68
2021/05/13 10:00:43;;;;;;;1.60;1.02;;;21.00;53.30;;;;;;5050392;28;20596;-69
2021/05/13 10:03:12;;;;;;;2.67;1.30;;;21.00;53.70;;;;;;5050509;28;20255;-68
2021/05/13 10:05:41;;;;;;;2.95;1.27;;;21.00;53.70;;;;;;5050623;28;20225;-67
2021/05/13 10:08:08;;;;;;;1.92;1.17;;;21.10;54.40;;;;;;5050268;28;20206;-68
2021/05/13 10:10:35;;;;;;;4.05;1.30;;;21.20;53.90;;;;;;5050548;28;20232;-68
2021/05/13 10:13:02;;;;;;;2.75;1.20;;;21.50;53.50;;;;;;5050395;28;20206;-67
2021/05/13 10:15:28;;;;;;;4.82;1.40;;;21.60;53.20;;;;;;5050470;28;20641;-67
2021/05/13 10:17:57;;;;;;;4.13;1.70;;;21.90;52.80;;;;;;5050205;28;20210;-67
2021/05/13 10:20:28;;;;;;;4.35;1.33;;;22.10;53.70;;;;;;5050397;28;20225;-67
2021/05/13 10:22:54;;;;;;;3.28;1.17;;;22.30;53.00;;;;;;5050675;28;20232;-67
2021/05/13 10:25:25;;;;;;;3.92;1.30;;;22.40;52.20;;;;;;5050420;28;20230;-67
2021/05/13 10:27:53;;;;;;;1.65;1.10;;;22.50;52.50;;;;;;5049916;28;20586;-67
2021/05/13 10:30:25;;;;;;;3.20;1.10;;;22.60;51.60;;;;;;5050300;28;20202;-67
2021/05/13 10:33:08;;;;;;;4.55;1.83;;;22.70;51.80;;;;;;5050506;28;20213;-67
2021/05/13 10:35:35;;;;;;;5.65;1.80;;;23.00;52.40;;;;;;5050221;28;20646;-67
2021/05/13 10:38:06;;;;;;;3.35;1.70;;;23.20;53.60;;;;;;5049944;28;20210;-65
2021/05/13 10:40:48;;;;;;;5.35;1.80;;;23.50;52.60;;;;;;5050712;28;20287;-65
2021/05/13 10:43:14;;;;;;;3.55;1.27;;;23.70;52.80;;;;;;5050159;28;20752;-66
2021/05/13 10:45:42;;;;;;;6.97;3.90;;;24.00;52.10;;;;;;5050180;28;20237;-66
2021/05/13 10:48:11;;;;;;;6.97;2.67;;;24.30;52.50;;;;;;5050244;28;20209;-65
2021/05/13 10:50:43;;;;;;;4.75;1.67;;;24.80;50.80;;;;;;5050072;28;20673;-65
2021/05/13 10:53:40;;;;;;;3.58;1.70;;;25.10;49.40;;;;;;5050392;28;20201;-65
2021/05/13 10:56:23;;;;;;;4.20;1.40;;;25.30;48.70;;;;;;5050270;28;20576;-66
2021/05/13 10:58:58;;;;;;;6.80;1.55;;;25.50;48.30;;;;;;5049819;28;20296;-65
2021/05/13 11:01:44;;;;;;;3.65;1.58;;;25.60;49.00;;;;;;5053409;28;20221;-65
2021/05/13 11:04:41;;;;;;;3.72;1.90;;;25.80;48.20;;;;;;5053794;28;20217;-65
2021/05/13 11:07:28;;;;;;;4.82;1.88;;;26.10;47.30;;;;;;5053848;28;20583;-66
2021/05/13 11:09:57;;;;;;;4.80;1.95;;;26.30;46.60;;;;;;5053866;28;20209;-66
2021/05/13 11:12:26;;;;;;;3.10;1.30;;;26.30;46.60;;;;;;5053459;28;20221;-66
2021/05/13 11:15:03;;;;;;;2.50;1.20;;;26.10;47.00;;;;;;5053831;28;20209;-66
2021/05/13 11:18:16;;;;;;;4.93;1.60;;;25.90;47.20;;;;;;5053241;28;20216;-66
2021/05/13 11:20:56;;;;;;;3.05;1.60;;;25.70;47.00;;;;;;5052930;28;20229;-66
2021/05/13 11:23:28;;;;;;;2.90;1.40;;;25.50;48.70;;;;;;5053219;28;20290;-67
2021/05/13 11:25:57;;;;;;;3.58;1.70;;;25.50;48.00;;;;;;5053199;28;20768;-65
2021/05/13 11:28:36;;;;;;;3.97;1.63;;;25.30;49.30;;;;;;5053712;28;20274;-66
2021/05/13 11:31:17;;;;;;;11.55;7.05;;;25.40;49.70;;;;;;5053886;28;20346;-66
2021/05/13 11:33:46;;;;;;;4.05;1.92;;;25.60;50.10;;;;;;5053254;28;20223;-67
2021/05/13 11:36:14;;;;;;;5.18;2.22;;;25.80;49.60;;;;;;5054299;28;20209;-66
2021/05/13 11:38:40;;;;;;;4.05;2.55;;;26.00;48.40;;;;;;5054053;28;20210;-67
2021/05/13 11:41:07;;;;;;;3.33;1.73;;;26.00;48.10;;;;;;5053935;28;20225;-66
2021/05/13 11:43:35;;;;;;;2.22;1.38;;;26.00;47.30;;;;;;5054031;28;20210;-67
2021/05/13 11:46:04;;;;;;;5.60;2.78;;;26.00;47.70;;;;;;5054766;28;20226;-65
2021/05/13 11:48:32;;;;;;;5.38;2.45;;;26.10;47.30;;;;;;5054600;28;20209;-65
2021/05/13 11:51:01;;;;;;;3.70;1.65;;;26.20;47.90;;;;;;5054016;28;20228;-70
2021/05/13 11:53:28;;;;;;;5.07;1.80;;;26.30;47.40;;;;;;5054046;28;20496;-66
2021/05/13 11:55:55;;;;;;;3.15;1.50;;;26.20;47.40;;;;;;5053858;28;20661;-67
2021/05/13 11:58:50;;;;;;;4.88;1.65;;;25.70;48.50;;;;;;5054341;28;20692;-65
2021/05/13 12:01:19;;;;;;;4.07;1.60;;;25.20;49.00;;;;;;5028536;28;20576;-65
2021/05/13 12:03:46;;;;;;;2.45;1.20;;;25.00;49.30;;;;;;5052976;28;20232;-65
2021/05/13 12:06:12;;;;;;;6.28;2.10;;;24.80;50.50;;;;;;5053105;28;20225;-65
2021/05/13 12:08:39;;;;;;;3.63;1.60;;;24.50;51.90;;;;;;5052990;28;20582;-65
2021/05/13 12:11:17;;;;;;;4.25;1.73;;;24.00;52.60;;;;;;5052579;28;20226;-62
2021/05/13 12:13:44;;;;;;;4.40;1.40;;;23.90;54.90;;;;;;5052799;28;20256;-63
2021/05/13 12:16:12;;;;;;;4.28;1.70;;;23.80;54.40;;;;;;5052541;28;20278;-63
2021/05/13 12:18:38;;;;;;;4.43;1.60;;;23.90;54.30;;;;;;5052501;28;20213;-64
2021/05/13 12:21:07;;;;;;;4.40;1.40;;;24.00;54.50;;;;;;5053185;28;20225;-63
2021/05/13 12:23:33;;;;;;;2.60;1.20;;;24.20;55.00;;;;;;5052836;28;20217;-63
2021/05/13 12:26:00;;;;;;;2.92;1.10;;;24.40;54.00;;;;;;5052659;28;20237;-62
2021/05/13 12:28:26;;;;;;;4.28;1.08;;;24.40;53.80;;;;;;5052138;28;20213;-63
2021/05/13 12:30:53;;;;;;;3.28;1.35;;;24.40;53.80;;;;;;5052375;28;20249;-64
2021/05/13 12:33:24;;;;;;;3.50;2.30;;;24.30;53.90;;;;;;5052718;28;20209;-63
2021/05/13 12:35:51;;;;;;;5.22;1.25;;;24.20;54.30;;;;;;5055063;28;20201;-63
2021/05/13 12:38:20;;;;;;;3.60;1.38;;;24.20;54.20;;;;;;5054077;28;20297;-63
2021/05/13 12:40:46;;;;;;;4.15;1.58;;;24.10;53.70;;;;;;5052983;28;20437;-62
2021/05/13 12:43:14;;;;;;;5.85;1.50;;;24.10;54.00;;;;;;5052246;28;20654;-64
2021/05/13 12:45:45;;;;;;;3.33;1.15;;;24.40;54.40;;;;;;5055604;28;20225;-63
2021/05/13 12:48:19;;;;;;;2.40;1.08;;;24.60;53.20;;;;;;5056861;28;20208;-62
2021/05/13 12:50:55;;;;;;;3.45;1.38;;;24.90;52.60;;;;;;5056172;28;20657;-63
2021/05/13 12:53:21;;;;;;;1.65;0.90;;;25.10;51.90;;;;;;5053920;28;20586;-63